Aeroporto :
LOGIN :

Iscrizione | Disclaimer

   EN    FR    IT 

 










Sommario :    VFR   VFR Marginale   IFR   IFR Intensivo   IFR Molto Intensivo
Visibilità : 
Base nubi : 
>= 8 km
>= 3000ft
5 / 8 km
1000 / 3000 ft
1500m / 5 km
500 / 1000 ft
800 / 1500m
200 / 500 ft
< 800m
< 200 ft
Simboli :   Temporali  Nebbia  Neve Forte  Precipitazioni Forti  Vento > 20 kt
SIGMETs :   Varie  Temporali  Ghiacco  Turbolenza  Onda orograficha  Ceneri Vulcaniche






- Altitudine del aeroporto : 375 ft
- Codice IATA : MST


EHBK - Maastricht Aachen

ULTIMO METAR :
  • 141925Z AUTO VRB01KT 9999 NSC 05/04 Q1002 NOSIG

METARs OBSOLETI :
  • 141855Z AUTO 03005KT 9999 -DZ NSC 05/04 Q1002 REDZ NOSIG
  • 141825Z AUTO VRB02KT 9999 -RA BKN040 OVC044 05/04 Q1002 REDZRA NOSIG
  • 141755Z AUTO 18003KT 100V210 9999 DZ BKN025 BKN028 06/03 Q1003 NOSIG
  • 141725Z AUTO 18003KT 110V220 9999 OVC024 06/03 Q1002 NOSIG
  • 141655Z AUTO 19003KT 9999 OVC024 06/03 Q1002 NOSIG
  • 141625Z AUTO 15004KT 9999 OVC026 06/03 Q1001 NOSIG

TAF TAF EHBK
Valido dal 14 a 18 ore il 16 a 00 ore UTC


141704Z 1418/1524 08005KT 9999 BKN025
BECMG 1503/1506 05010KT
PROB30 1504/1510 6000 BKN010
BECMG 1509/1512 09010KT
BECMG 1515/1518 18007KT
BECMG 1521/1524 6000



MetMap, La meteo Aeronautica in un colpo d'occhio ! - Copyright ORBIFLY Dicembre 2007 - Disclaimer

ORBIFLY MET'MAP TEAM :

Programmazione e sviluppo : Alexandra Zaïnal
Concezione e sviluppo : Baudouin d'Aumeries
Co-Programmazione e sviluppo : Marc-Olivier Méhu
Supporto tecnico e logistico : Manuel Goepfert
Aiuto per la traduzione : Arnaldo La Scala

Contatto : metmap@orbifly.com




FONTI E CREDITI :

   NOAA